createdAt,value
2022-12-04T00:01:14.810Z,3.61
2022-12-04T00:03:41.738Z,3.72
2022-12-04T00:06:11.153Z,3.93
2022-12-04T00:08:38.216Z,3.53
2022-12-04T00:11:06.334Z,3.71
2022-12-04T00:13:34.043Z,3.59
2022-12-04T00:16:01.092Z,3.45
2022-12-04T00:18:27.921Z,3.27
2022-12-04T00:20:54.479Z,3.71
2022-12-04T00:23:21.260Z,3.89
2022-12-04T00:25:48.789Z,3.70
2022-12-04T00:28:19.226Z,3.80
2022-12-04T00:30:46.274Z,3.88
2022-12-04T00:33:13.663Z,3.88
2022-12-04T00:35:40.395Z,4.05
2022-12-04T00:38:06.937Z,3.70
2022-12-04T00:40:33.476Z,3.48
2022-12-04T00:42:59.996Z,3.66
2022-12-04T00:45:26.601Z,3.81
2022-12-04T00:47:53.144Z,3.89
2022-12-04T00:50:19.817Z,3.92
2022-12-04T00:52:46.362Z,3.82
2022-12-04T00:55:12.951Z,3.97
2022-12-04T00:57:39.492Z,3.91
2022-12-04T01:00:07.180Z,3.88
2022-12-04T01:02:34.024Z,3.17
2022-12-04T01:05:01.669Z,3.63
2022-12-04T01:07:28.389Z,3.28
2022-12-04T01:09:55.137Z,3.99
2022-12-04T01:12:21.864Z,3.48
2022-12-04T01:14:48.371Z,3.42
2022-12-04T01:17:14.838Z,3.82
2022-12-04T01:19:41.340Z,3.73
2022-12-04T01:22:07.841Z,3.78
2022-12-04T01:24:34.315Z,3.78
2022-12-04T01:27:00.822Z,3.99
2022-12-04T01:29:27.309Z,3.64
2022-12-04T01:31:53.881Z,3.74
2022-12-04T01:34:20.433Z,3.66
2022-12-04T01:36:47.005Z,3.76
2022-12-04T01:39:13.612Z,3.89
2022-12-04T01:41:40.099Z,3.97
2022-12-04T01:44:19.991Z,3.80
2022-12-04T01:47:06.712Z,3.66
2022-12-04T01:49:38.022Z,3.86
2022-12-04T01:52:14.005Z,3.95
2022-12-04T01:54:44.168Z,4.08
2022-12-04T01:57:16.667Z,3.79
2022-12-04T01:59:48.895Z,3.92
2022-12-04T02:02:21.146Z,3.61
2022-12-04T02:04:49.397Z,4.00
2022-12-04T02:07:15.980Z,3.12
2022-12-04T02:09:43.562Z,3.72
2022-12-04T02:12:40.605Z,3.86
2022-12-04T02:15:13.398Z,3.81
2022-12-04T02:18:03.217Z,3.80
2022-12-04T02:20:35.633Z,3.39
2022-12-04T02:23:23.364Z,3.71
2022-12-04T02:26:11.777Z,3.54
2022-12-04T02:29:04.652Z,3.93
2022-12-04T02:31:35.283Z,3.97
2022-12-04T02:34:07.499Z,3.91
2022-12-04T02:36:44.746Z,3.99
2022-12-04T02:39:23.080Z,3.63
2022-12-04T02:42:10.342Z,3.62
2022-12-04T02:44:48.640Z,3.91
2022-12-04T02:47:20.040Z,3.68
2022-12-04T02:49:52.144Z,3.80
2022-12-04T02:52:21.041Z,3.96
2022-12-04T02:54:53.098Z,3.91
2022-12-04T02:57:22.109Z,4.06
2022-12-04T02:59:51.190Z,4.12
2022-12-04T03:02:25.312Z,4.09
2022-12-04T03:04:55.921Z,4.00
2022-12-04T03:07:30.444Z,3.97
2022-12-04T03:10:05.635Z,4.00
2022-12-04T03:12:50.534Z,3.44
2022-12-04T03:15:24.353Z,3.42
2022-12-04T03:18:00.993Z,3.54
2022-12-04T03:20:29.357Z,3.55
2022-12-04T03:23:03.100Z,3.89
2022-12-04T03:25:36.957Z,3.88
2022-12-04T03:28:33.294Z,3.82
2022-12-04T03:31:06.412Z,3.56
2022-12-04T03:33:42.278Z,3.55
2022-12-04T03:36:47.184Z,3.14
2022-12-04T03:39:20.890Z,3.52
2022-12-04T03:42:12.679Z,3.68
2022-12-04T03:44:41.322Z,3.80
2022-12-04T03:47:09.824Z,3.93
2022-12-04T03:49:58.091Z,3.86
2022-12-04T03:53:09.485Z,3.36
2022-12-04T03:55:40.603Z,3.33
2022-12-04T03:58:12.789Z,3.40
2022-12-04T04:00:43.023Z,3.41
2022-12-04T04:03:22.145Z,3.39
2022-12-04T04:05:54.815Z,3.85
2022-12-04T04:08:27.434Z,3.76
2022-12-04T04:10:59.047Z,3.82
2022-12-04T04:14:19.327Z,3.17
2022-12-04T04:17:10.929Z,3.76
2022-12-04T04:19:59.178Z,2.93
2022-12-04T04:22:45.612Z,3.39
2022-12-04T04:25:16.785Z,3.00
2022-12-04T04:27:50.564Z,2.99
2022-12-04T04:30:17.089Z,2.94
2022-12-04T04:32:46.516Z,3.28
2022-12-04T04:35:22.466Z,3.36
2022-12-04T04:38:07.671Z,3.60
2022-12-04T04:40:56.708Z,3.06
2022-12-04T04:43:29.219Z,3.17
2022-12-04T04:46:18.671Z,3.19
2022-12-04T04:48:50.760Z,3.43
2022-12-04T04:51:18.435Z,3.03
2022-12-04T04:53:52.289Z,3.41
2022-12-04T04:56:20.832Z,3.38
2022-12-04T04:58:47.352Z,3.06
2022-12-04T05:01:17.585Z,2.83
2022-12-04T05:03:44.157Z,3.04
2022-12-04T05:06:10.648Z,2.41
2022-12-04T05:08:37.540Z,2.83
2022-12-04T05:11:05.080Z,2.98
2022-12-04T05:13:32.958Z,2.82
2022-12-04T05:16:01.816Z,2.82
2022-12-04T05:18:29.156Z,3.49
2022-12-04T05:20:56.146Z,2.92
2022-12-04T05:23:23.135Z,2.73
2022-12-04T05:25:49.903Z,3.12
2022-12-04T05:28:16.960Z,2.75
2022-12-04T05:30:43.481Z,3.14
2022-12-04T05:33:10.394Z,2.50
2022-12-04T05:35:36.837Z,2.89
2022-12-04T05:38:03.309Z,2.30
2022-12-04T05:40:29.880Z,2.55
2022-12-04T05:42:57.255Z,3.14
2022-12-04T05:45:23.698Z,3.23
2022-12-04T05:47:50.118Z,2.83
2022-12-04T05:50:16.704Z,2.69
2022-12-04T05:52:43.179Z,2.88
2022-12-04T05:55:09.671Z,2.87
2022-12-04T05:57:36.147Z,3.20
2022-12-04T06:00:02.666Z,2.18
2022-12-04T06:02:37.843Z,2.93
2022-12-04T06:05:04.767Z,2.81
2022-12-04T06:07:31.290Z,2.92
2022-12-04T06:09:57.986Z,2.42
2022-12-04T06:12:24.783Z,2.27
2022-12-04T06:14:51.271Z,2.78
2022-12-04T06:17:17.741Z,2.70
2022-12-04T06:19:44.183Z,2.28
2022-12-04T06:22:10.655Z,2.38
2022-12-04T06:24:37.186Z,2.58
2022-12-04T06:27:26.605Z,2.66
2022-12-04T06:29:50.135Z,3.05
2022-12-04T06:32:21.462Z,3.06
2022-12-04T06:34:53.454Z,3.03
2022-12-04T06:37:22.708Z,2.95
2022-12-04T06:39:49.280Z,2.98
2022-12-04T06:42:16.417Z,2.92
2022-12-04T06:44:42.854Z,2.77
2022-12-04T06:47:09.454Z,2.63
2022-12-04T06:49:36.251Z,2.33
2022-12-04T06:52:02.832Z,2.57
2022-12-04T06:54:29.274Z,2.77
2022-12-04T06:56:55.722Z,2.93
2022-12-04T06:59:22.270Z,3.12
2022-12-04T07:01:48.769Z,2.73
2022-12-04T07:04:15.273Z,2.87
2022-12-04T07:06:42.265Z,2.73
2022-12-04T07:09:15.001Z,2.94
2022-12-04T07:11:42.389Z,3.05
2022-12-04T07:14:09.335Z,2.96
2022-12-04T07:16:40.699Z,2.92
2022-12-04T07:19:12.788Z,2.71
2022-12-04T07:21:39.858Z,2.88
2022-12-04T07:24:06.811Z,3.02
2022-12-04T07:26:33.558Z,2.68
2022-12-04T07:29:00.161Z,2.83
2022-12-04T07:31:29.190Z,3.21
2022-12-04T07:33:56.453Z,2.69
2022-12-04T07:36:24.946Z,2.58
2022-12-04T07:38:51.936Z,2.60
2022-12-04T07:41:18.885Z,2.87
2022-12-04T07:43:45.929Z,2.95
2022-12-04T07:46:19.332Z,2.79
2022-12-04T07:48:46.249Z,2.76
2022-12-04T07:51:19.149Z,2.77
2022-12-04T07:53:46.342Z,2.65
2022-12-04T07:56:14.172Z,2.64
2022-12-04T07:58:41.309Z,2.44
2022-12-04T08:01:13.802Z,2.42
2022-12-04T08:03:47.131Z,2.50
2022-12-04T08:06:15.419Z,2.48
2022-12-04T08:08:41.916Z,2.52
2022-12-04T08:11:10.349Z,2.90
2022-12-04T08:13:37.232Z,2.75
2022-12-04T08:16:05.556Z,2.66
2022-12-04T08:18:32.634Z,2.88
2022-12-04T08:21:23.217Z,2.70
2022-12-04T08:23:52.089Z,2.26
2022-12-04T08:26:20.343Z,2.71
2022-12-04T08:28:46.897Z,2.33
2022-12-04T08:31:15.168Z,2.88
2022-12-04T08:33:43.757Z,2.50
2022-12-04T08:36:14.536Z,2.75
2022-12-04T08:38:41.712Z,3.06
2022-12-04T08:41:12.253Z,2.33
2022-12-04T08:43:39.107Z,2.40
2022-12-04T08:46:09.002Z,2.85
2022-12-04T08:48:36.080Z,2.79
2022-12-04T08:51:04.356Z,2.91
2022-12-04T08:53:31.971Z,2.99
2022-12-04T08:56:01.059Z,2.71
2022-12-04T08:58:27.932Z,3.18
2022-12-04T09:00:54.395Z,2.55
2022-12-04T09:03:24.869Z,2.50
2022-12-04T09:05:59.330Z,2.51
2022-12-04T09:08:25.956Z,2.95
2022-12-04T09:10:52.447Z,2.86
2022-12-04T09:13:19.026Z,2.99
2022-12-04T09:15:45.565Z,3.09
2022-12-04T09:18:12.170Z,2.33
2022-12-04T09:20:38.674Z,3.06
2022-12-04T09:23:05.808Z,2.72
2022-12-04T09:25:36.228Z,2.73
2022-12-04T09:28:02.859Z,2.79
2022-12-04T09:30:29.439Z,2.84
2022-12-04T09:32:56.120Z,2.88
2022-12-04T09:35:22.644Z,3.13
2022-12-04T09:37:49.080Z,2.71
2022-12-04T09:40:29.535Z,3.34
2022-12-04T09:43:26.374Z,3.08
2022-12-04T09:45:58.711Z,3.42
2022-12-04T09:48:34.366Z,3.34
2022-12-04T09:51:03.049Z,3.14
2022-12-04T09:53:43.786Z,3.20
2022-12-04T09:56:13.815Z,3.36
2022-12-04T09:58:40.330Z,3.23
2022-12-04T10:01:14.895Z,2.79
2022-12-04T10:03:41.552Z,3.36
2022-12-04T10:06:16.443Z,3.20
2022-12-04T10:08:46.335Z,2.88
2022-12-04T10:11:39.782Z,3.03
2022-12-04T10:14:06.298Z,2.88
2022-12-04T10:16:55.938Z,3.01
2022-12-04T10:19:31.357Z,3.14
2022-12-04T10:22:30.689Z,3.31
2022-12-04T10:25:06.967Z,3.26
2022-12-04T10:27:46.312Z,3.48
2022-12-04T10:30:24.880Z,2.68
2022-12-04T10:33:00.800Z,2.93
2022-12-04T10:35:30.953Z,3.48
2022-12-04T10:38:06.349Z,3.31
2022-12-04T10:40:44.014Z,3.18
2022-12-04T10:43:27.815Z,3.33
2022-12-04T10:45:54.508Z,3.38
2022-12-04T10:48:26.763Z,2.92
2022-12-04T10:50:53.294Z,3.17
2022-12-04T10:53:27.667Z,3.42
2022-12-04T10:55:54.156Z,2.97
2022-12-04T10:58:20.968Z,3.20
2022-12-04T11:01:02.950Z,3.27
2022-12-04T11:03:29.751Z,3.70
2022-12-04T11:06:00.056Z,3.46
2022-12-04T11:08:33.869Z,3.52
2022-12-04T11:11:03.270Z,2.76
2022-12-04T11:13:29.779Z,3.05
2022-12-04T11:15:58.225Z,3.30
2022-12-04T11:18:30.646Z,3.47
2022-12-04T11:21:28.315Z,3.32
2022-12-04T11:23:55.200Z,3.66
2022-12-04T11:26:37.190Z,3.94
2022-12-04T11:29:05.990Z,3.57
2022-12-04T11:31:33.130Z,4.03
2022-12-04T11:34:03.348Z,3.90
2022-12-04T11:36:37.289Z,3.71
2022-12-04T11:39:12.797Z,3.70
2022-12-04T11:41:39.712Z,3.58
2022-12-04T11:44:07.821Z,3.57
2022-12-04T11:46:35.077Z,3.75
2022-12-04T11:49:03.330Z,3.63
2022-12-04T11:52:05.211Z,3.67
2022-12-04T11:54:49.852Z,3.76
2022-12-04T11:57:28.331Z,3.71
2022-12-04T12:00:20.064Z,3.32
2022-12-04T12:03:11.545Z,2.93
2022-12-04T12:05:59.369Z,3.57
2022-12-04T12:08:37.995Z,3.40
2022-12-04T12:11:16.104Z,2.98
2022-12-04T12:13:55.523Z,3.59
2022-12-04T12:16:29.476Z,3.44
2022-12-04T12:19:33.101Z,3.51
2022-12-04T12:22:14.271Z,3.72
2022-12-04T12:24:53.444Z,3.70
2022-12-04T12:27:33.045Z,3.87
2022-12-04T12:30:09.384Z,3.23
2022-12-04T12:32:41.748Z,4.04
2022-12-04T12:35:58.959Z,3.61
2022-12-04T12:38:31.983Z,4.06
2022-12-04T12:41:04.474Z,3.31
2022-12-04T12:43:37.150Z,3.79
2022-12-04T12:46:27.471Z,4.04
2022-12-04T12:49:03.139Z,3.95
2022-12-04T12:51:45.407Z,4.12
2022-12-04T12:54:30.569Z,3.52
2022-12-04T12:57:09.119Z,3.94
2022-12-04T12:59:41.875Z,3.54
2022-12-04T13:02:14.126Z,3.80
2022-12-04T13:04:44.029Z,4.12
2022-12-04T13:07:20.844Z,3.96
2022-12-04T13:10:00.691Z,4.28
2022-12-04T13:12:28.504Z,3.64
2022-12-04T13:14:55.188Z,3.76
2022-12-04T13:17:38.724Z,3.91
2022-12-04T13:20:14.101Z,3.58
2022-12-04T13:23:09.082Z,3.92
2022-12-04T13:25:41.461Z,3.95
2022-12-04T13:28:36.302Z,3.57
2022-12-04T13:31:25.934Z,3.62
2022-12-04T13:33:52.397Z,3.60
2022-12-04T13:36:48.066Z,3.85
2022-12-04T13:39:32.968Z,3.86
2022-12-04T13:42:02.628Z,3.95
2022-12-04T13:44:31.062Z,3.68
2022-12-04T13:47:01.114Z,3.62
2022-12-04T13:49:29.223Z,3.69
2022-12-04T13:51:56.813Z,3.48
2022-12-04T13:54:26.659Z,3.14
2022-12-04T13:56:56.178Z,3.82
2022-12-04T13:59:29.509Z,3.76
2022-12-04T14:02:02.383Z,3.77
2022-12-04T14:04:40.309Z,3.37
2022-12-04T14:07:07.124Z,3.71
2022-12-04T14:09:40.579Z,4.01
2022-12-04T14:12:12.641Z,4.18
2022-12-04T14:14:39.019Z,4.23
2022-12-04T14:17:16.946Z,3.84
2022-12-04T14:19:51.276Z,4.01
2022-12-04T14:22:39.128Z,3.91
2022-12-04T14:25:34.465Z,3.78
2022-12-04T14:28:13.336Z,3.57
2022-12-04T14:30:40.678Z,3.43
2022-12-04T14:33:16.264Z,3.33
2022-12-04T14:35:48.004Z,3.56
2022-12-04T14:38:20.507Z,3.58
2022-12-04T14:40:52.042Z,3.75
2022-12-04T14:43:23.904Z,3.72
2022-12-04T14:46:14.108Z,3.70
2022-12-04T14:48:53.952Z,3.99
2022-12-04T14:52:02.927Z,3.79
2022-12-04T14:54:54.412Z,3.84
2022-12-04T14:57:50.262Z,3.96
2022-12-04T15:00:20.099Z,3.71
2022-12-04T15:02:49.200Z,3.67
2022-12-04T15:05:25.223Z,3.95
2022-12-04T15:07:57.099Z,4.08
2022-12-04T15:10:51.927Z,3.79
2022-12-04T15:13:26.542Z,4.09
2022-12-04T15:15:53.336Z,4.07
2022-12-04T15:18:19.840Z,4.10
2022-12-04T15:20:49.391Z,3.83
2022-12-04T15:23:22.473Z,3.57
2022-12-04T15:25:54.887Z,3.73
2022-12-04T15:28:28.310Z,3.74
2022-12-04T15:30:56.575Z,4.02
2022-12-04T15:33:29.411Z,3.71
2022-12-04T15:36:01.786Z,4.03
2022-12-04T15:38:28.837Z,3.54
2022-12-04T15:41:00.660Z,3.83
2022-12-04T15:43:30.637Z,4.08
2022-12-04T15:45:58.031Z,3.86
2022-12-04T15:48:33.307Z,3.92
2022-12-04T15:51:05.516Z,4.00
2022-12-04T15:53:45.500Z,4.17
2022-12-04T15:56:21.203Z,4.19
2022-12-04T15:59:01.050Z,4.11
2022-12-04T16:01:37.721Z,3.96
2022-12-04T16:04:04.342Z,4.05
2022-12-04T16:06:33.309Z,3.96
2022-12-04T16:09:17.610Z,3.56
2022-12-04T16:11:44.260Z,3.99
2022-12-04T16:14:13.717Z,3.85
2022-12-04T16:16:43.576Z,4.03
2022-12-04T16:19:16.474Z,3.59
2022-12-04T16:21:43.404Z,3.79
2022-12-04T16:24:11.927Z,3.55
2022-12-04T16:26:38.618Z,3.91
2022-12-04T16:29:05.314Z,3.76
2022-12-04T16:31:31.918Z,4.20
2022-12-04T16:33:58.619Z,4.21
2022-12-04T16:36:25.117Z,4.20
2022-12-04T16:38:51.682Z,3.97
2022-12-04T16:41:19.696Z,4.23
2022-12-04T16:43:53.808Z,4.39
2022-12-04T16:46:22.229Z,3.94
2022-12-04T16:48:48.724Z,4.11
2022-12-04T16:51:17.499Z,4.28
2022-12-04T16:53:44.209Z,4.09
2022-12-04T16:56:10.980Z,4.41
2022-12-04T16:58:37.706Z,3.99
2022-12-04T17:01:06.699Z,4.35
2022-12-04T17:03:34.363Z,4.40
2022-12-04T17:06:01.461Z,4.29
2022-12-04T17:08:28.471Z,4.07
2022-12-04T17:10:54.966Z,4.18
2022-12-04T17:13:22.182Z,4.29
2022-12-04T17:15:49.499Z,4.03
2022-12-04T17:18:20.783Z,3.90
2022-12-04T17:20:48.171Z,3.96
2022-12-04T17:23:14.732Z,4.18
2022-12-04T17:25:41.288Z,3.61
2022-12-04T17:28:08.204Z,3.70
2022-12-04T17:30:36.450Z,4.12
2022-12-04T17:33:04.505Z,3.89
2022-12-04T17:35:30.988Z,4.00
2022-12-04T17:38:02.083Z,3.80
2022-12-04T17:40:32.121Z,3.88
2022-12-04T17:42:59.212Z,3.77
2022-12-04T17:45:25.844Z,4.31
2022-12-04T17:47:52.305Z,4.13
2022-12-04T17:50:18.767Z,3.95
2022-12-04T17:52:45.296Z,4.13
2022-12-04T17:55:11.936Z,3.58
2022-12-04T17:57:38.431Z,4.07
2022-12-04T18:00:05.828Z,3.99
2022-12-04T18:02:41.328Z,4.29
2022-12-04T18:05:09.002Z,4.30
2022-12-04T18:07:35.534Z,4.05
2022-12-04T18:10:01.992Z,4.25
2022-12-04T18:12:28.484Z,4.36
2022-12-04T18:14:55.248Z,3.98
2022-12-04T18:17:21.723Z,3.96
2022-12-04T18:19:48.230Z,3.91
2022-12-04T18:22:14.787Z,4.07
2022-12-04T18:24:41.344Z,3.74
2022-12-04T18:27:07.823Z,4.10
2022-12-04T18:29:34.375Z,3.93
2022-12-04T18:32:00.940Z,3.53
2022-12-04T18:34:27.464Z,3.84
2022-12-04T18:36:53.909Z,3.75
2022-12-04T18:39:22.499Z,3.94
2022-12-04T18:41:49.377Z,3.83
2022-12-04T18:44:17.333Z,3.87
2022-12-04T18:46:43.970Z,3.88
2022-12-04T18:49:10.972Z,4.22
2022-12-04T18:51:49.688Z,4.14
2022-12-04T18:54:20.131Z,4.40
2022-12-04T18:56:47.132Z,4.08
2022-12-04T18:59:19.759Z,3.96
2022-12-04T19:01:49.710Z,3.93
2022-12-04T19:04:18.334Z,4.13
2022-12-04T19:06:50.207Z,4.38
2022-12-04T19:09:20.768Z,4.38
2022-12-04T19:11:47.251Z,4.14
2022-12-04T19:14:22.695Z,4.13
2022-12-04T19:16:50.698Z,4.15
2022-12-04T19:19:17.711Z,4.04
2022-12-04T19:21:44.393Z,3.86
2022-12-04T19:24:11.476Z,3.99
2022-12-04T19:26:38.881Z,3.86
2022-12-04T19:29:06.236Z,3.66
2022-12-04T19:31:36.543Z,3.97
2022-12-04T19:34:04.418Z,3.78
2022-12-04T19:36:32.381Z,3.98
2022-12-04T19:39:00.116Z,3.88
2022-12-04T19:41:34.736Z,4.00
2022-12-04T19:44:01.539Z,4.20
2022-12-04T19:46:32.875Z,4.25
2022-12-04T19:49:02.132Z,4.28
2022-12-04T19:51:33.527Z,4.24
2022-12-04T19:54:01.110Z,4.45
2022-12-04T19:56:30.508Z,4.40
2022-12-04T19:58:59.903Z,4.47
2022-12-04T20:01:29.184Z,4.43
2022-12-04T20:03:56.848Z,4.51
2022-12-04T20:06:25.882Z,4.24
2022-12-04T20:09:00.584Z,3.86
2022-12-04T20:11:28.906Z,3.95
2022-12-04T20:13:56.779Z,4.07
2022-12-04T20:16:24.980Z,4.23
2022-12-04T20:18:51.998Z,3.85
2022-12-04T20:21:19.422Z,4.06
2022-12-04T20:23:50.114Z,4.21
2022-12-04T20:26:28.574Z,4.02
2022-12-04T20:28:56.923Z,3.80
2022-12-04T20:31:35.393Z,3.88
2022-12-04T20:34:04.677Z,4.13
2022-12-04T20:36:35.647Z,4.23
2022-12-04T20:39:02.324Z,4.48
2022-12-04T20:41:30.636Z,4.12
2022-12-04T20:44:01.175Z,4.26
2022-12-04T20:46:33.347Z,4.44
2022-12-04T20:49:01.581Z,4.00
2022-12-04T20:51:34.407Z,4.10
2022-12-04T20:54:01.550Z,4.35
2022-12-04T20:56:30.924Z,4.23
2022-12-04T20:58:59.184Z,4.27
2022-12-04T21:01:26.649Z,4.16
2022-12-04T21:03:53.981Z,3.29
2022-12-04T21:06:23.996Z,3.82
2022-12-04T21:08:54.549Z,4.15
2022-12-04T21:11:25.010Z,4.01
2022-12-04T21:14:11.033Z,3.82
2022-12-04T21:16:37.706Z,4.15
2022-12-04T21:19:05.844Z,3.76
2022-12-04T21:21:32.906Z,4.21
2022-12-04T21:23:59.379Z,4.42
2022-12-04T21:26:29.115Z,4.19
2022-12-04T21:28:56.328Z,3.83
2022-12-04T21:31:23.030Z,4.13
2022-12-04T21:33:49.758Z,4.14
2022-12-04T21:36:16.530Z,4.21
2022-12-04T21:38:43.022Z,4.21
2022-12-04T21:41:10.055Z,3.94
2022-12-04T21:43:37.097Z,4.25
2022-12-04T21:46:09.379Z,4.26
2022-12-04T21:48:36.387Z,3.69
2022-12-04T21:51:13.281Z,4.37
2022-12-04T21:53:54.746Z,4.14
2022-12-04T21:56:24.866Z,4.19
2022-12-04T21:58:52.508Z,4.38
2022-12-04T22:01:21.030Z,4.22
2022-12-04T22:03:48.298Z,4.20
2022-12-04T22:06:15.075Z,3.58
2022-12-04T22:08:41.899Z,4.14
2022-12-04T22:11:09.900Z,4.00
2022-12-04T22:13:37.078Z,3.94
2022-12-04T22:16:05.617Z,3.81
2022-12-04T22:18:33.547Z,3.73
2022-12-04T22:21:03.582Z,3.93
2022-12-04T22:23:30.075Z,3.89
2022-12-04T22:25:56.641Z,4.09
2022-12-04T22:28:23.116Z,4.08
2022-12-04T22:30:49.805Z,4.11
2022-12-04T22:33:16.407Z,3.98
2022-12-04T22:35:42.903Z,4.10
2022-12-04T22:38:09.391Z,4.22
2022-12-04T22:40:37.334Z,3.68
2022-12-04T22:43:03.790Z,4.11
2022-12-04T22:45:30.276Z,4.34
2022-12-04T22:47:56.734Z,4.11
2022-12-04T22:50:23.185Z,4.06
2022-12-04T22:52:49.658Z,4.07
2022-12-04T22:55:16.266Z,4.13
2022-12-04T22:57:42.726Z,4.05
2022-12-04T23:00:09.664Z,4.06
2022-12-04T23:02:36.250Z,4.18
2022-12-04T23:05:02.864Z,4.17
2022-12-04T23:07:29.484Z,3.94
2022-12-04T23:09:56.246Z,4.10
2022-12-04T23:12:23.653Z,4.00
2022-12-04T23:14:50.219Z,3.89
2022-12-04T23:17:17.394Z,3.76
2022-12-04T23:19:43.847Z,3.71
2022-12-04T23:22:10.398Z,3.62
2022-12-04T23:24:38.468Z,3.84
2022-12-04T23:27:05.159Z,3.98
2022-12-04T23:32:18.573Z,3.70
2022-12-04T23:34:45.036Z,3.92
2022-12-04T23:37:11.556Z,4.11
2022-12-04T23:39:38.017Z,4.21
2022-12-04T23:42:04.488Z,4.18
2022-12-04T23:44:31.026Z,4.00
2022-12-04T23:46:57.720Z,4.12
2022-12-04T23:49:24.232Z,3.71
2022-12-04T23:51:50.741Z,3.96
2022-12-04T23:54:17.240Z,3.84
2022-12-04T23:56:44.050Z,3.72
2022-12-04T23:59:10.578Z,3.95
